x

North Michigan- Halfway Between North Manitou And Washington Islands. (45002) Wave Buoy

11:50am - Wed 16th Aug 2017 All times are CDT. -5 hours from GMT.

  • Sig Wave height 0.7ft
  • Average Period 3s
  • Wind
    7mph, 7mph gusts
  • Sea Temp 68°f
  • Air Temp 66°f
  • Sea Pressure 1017.9mb
  • North Michigan- Halfway Between North Manitou And Washington Islands.
  • North Michigan- Halfway Between North Manitou And Washington Islands.

More Historic Weather Station data

Upgrade to MSW Pro to gain access to the past 30 days of data for over 8000 Wavebouys and Weather Stations around the globe.

Join

Comparision Forecast

View Surf forecast
   
Wed 08/16 11:50am 0.7ft  -  3s 7 7 mph 1017.9mb 68f 66f
10:50am 0.7ft  -  3s 9 9 mph 1018.1mb 68f 65f
9:50am 0.7ft  -  3s 9 9 mph 1018.7mb 67f 65f
8:50am 0.7ft  -  3s 7 9 mph 1018.7mb 67f 65f
7:50am 1ft 3s 3s 7 9 mph 1018.7mb 67f 66f
6:50am 1ft 3s 3s 9 9 mph 1018.7mb 67f 65f
5:50am 1.3ft 4s 3s 7 9 mph 1018.5mb 67f 65f
4:50am 1.3ft 3s 3s 9 11 mph 1018mb 67f 65f
2:50am 1.3ft 3s 3s 9 13 mph 1018mb 67f 64f
1:50am 1.3ft 4s 3s 13 13 mph 1017.6mb 67f 64f
12:50am 1.6ft 4s 3s 13 16 mph 1017.6mb 67f 64f
Tue 08/15 11:50pm 1.6ft 4s 3s 13 16 mph 1017.1mb 67f 64f
10:50pm 1.6ft 3s 3s 16 16 mph 1016.8mb 67f 64f
8:50pm 0.7ft  -  2s 13 16 mph 1016.4mb 68f 67f
7:50pm 0.3ft  -  2s 9 9 mph 1016.2mb 68f 68f
6:50pm 0.3ft  -  2s 7 9 mph 1016mb 69f 68f
4:50pm 0.3ft  -  3s 7 9 mph 1015.5mb 69f 67f
3:50pm 0.3ft  -  3s 7 7 mph 1015.7mb 69f 67f
2:50pm 0.7ft  -  3s 4 7 mph 1015.6mb 69f 66f
1:50pm 0.7ft  -  3s 7 9 mph 1015.7mb 68f 65f
12:50pm 0.7ft  -  3s 7 9 mph 1015.3mb 68f 65f
11:50am 0.7ft  -  3s 7 7 mph 1015.2mb 68f 65f
10:50am 1ft 3s 3s 4 7 mph 1015.5mb 67f 65f
9:50am 1ft 3s 3s 7 9 mph 1014.4mb 67f 64f
8:50am 1.3ft 3s 3s 11 13 mph 1014.1mb 67f 64f
7:50am 1ft 3s 3s 13 16 mph 1013mb 67f 64f
6:50am 1ft 3s 3s 13 16 mph 1013.2mb 67f 63f
5:50am 1ft 3s 3s 11 13 mph 1012.8mb 67f 64f
4:50am 0.7ft  -  3s 9 11 mph 1012.4mb 67f 65f
3:50am 0.7ft  -  3s 9 11 mph 1012.1mb 67f 65f
2:50am 0.7ft  -  3s 2 4 mph 1011.4mb 67f 66f
1:50am 0.7ft  -  3s 9 11 mph 1011.2mb 67f 66f
12:50am 0.7ft  -  3s 7 9 mph 1011.5mb 67f 66f
Mon 08/14 11:50pm 0.7ft  -  3s 9 11 mph 1011.2mb 67f 66f
10:50pm 0.3ft  -  3s 11 13 mph 1011mb 67f 66f
9:50pm 0.7ft  -  3s 2 4 mph 1011mb 67f 67f
8:50pm 0.7ft  -  3s 2 4 mph 1011mb 67f 67f
7:50pm 0.7ft  -  3s 2 2 mph 1010.8mb 67f 67f
6:50pm 0.7ft  -  3s 2 2 mph 1010.7mb 68f 67f
5:50pm 0.7ft  -  3s 4 7 mph 1010.8mb 68f 67f
4:50pm 0.7ft  -  3s 4 7 mph 1011mb 68f 67f
3:50pm 1ft 3s 3s 9 11 mph 1011.6mb 68f 67f
2:50pm 1ft 3s 3s 9 11 mph 1011.9mb 68f 67f
1:50pm 1ft 3s 3s 11 11 mph 1012.1mb 67f 67f
12:50pm 1ft 3s 3s 11 11 mph 1012.3mb 67f 67f
11:50am 0.7ft  -  3s 9 9 mph 1012.6mb 67f 66f
10:50am 0.7ft  -  3s 9 11 mph 1013mb 67f 66f
9:50am 0.7ft  -  3s 9 11 mph 1013.2mb 67f 66f
8:50am 1ft 3s 3s 9 11 mph 1013.4mb 67f 66f
7:50am 1ft 4s 3s 9 9 mph 1013.8mb 67f 66f
6:50am 1ft 4s 3s 9 11 mph 1013.9mb 67f 66f
5:50am 1ft 4s 3s 7 9 mph 1014.1mb 67f 66f
4:50am 1ft 4s 3s 7 9 mph 1014.1mb 67f 66f
3:50am 1ft 4s 3s 9 9 mph 1014.4mb 67f 66f
2:50am 1ft 4s  -  11 11 mph 1014.6mb 67f 66f
1:50am 1.3ft 4s 3s 7 9 mph 1014.8mb 67f 67f
12:50am 1.3ft 4s 3s 4 7 mph 1015mb 67f 67f
Sun 08/13 11:50pm 1.3ft 4s 3s 9 9 mph 1015.2mb 67f 67f
10:50pm 1.3ft 3s 3s 11 11 mph 1015.5mb 67f 67f
9:50pm 1.3ft 3s 3s 11 11 mph 1015.3mb 67f 67f
8:50pm 1.3ft 3s 3s 13 16 mph 1015.2mb 67f 68f
7:50pm 1.3ft 3s 3s 13 13 mph 1015.3mb 67f 68f
6:50pm 1.3ft 3s 3s 11 13 mph 1015.5mb 67f 68f
5:50pm 1.3ft 3s 3s 13 16 mph 1015.7mb 67f 68f
4:50pm 1ft 3s 3s 13 16 mph 1016.3mb 67f 68f
3:50pm 1ft 3s 3s 11 13 mph 1016.8mb 67f 68f
2:50pm 1ft 3s 3s 11 13 mph 1017.4mb 67f 68f
1:50pm 1ft 3s 3s 9 11 mph 1017.5mb 67f 68f
12:50pm 1ft 3s 3s 11 11 mph 1017.7mb 67f 67f
11:50am 1ft 3s 3s 11 13 mph 1017.8mb 67f 67f
10:50am 0.7ft  -  2s 13 16 mph 1017.9mb 67f 66f
9:50am  -   -   -  9 11 mph 1018mb 66f 66f
8:50am  -   -  3s 9 9 mph 1017.9mb 66f 66f
7:50am 0.3ft  -  3s 7 7 mph 1017.6mb 66f 66f
6:50am 0.3ft  -  3s 7 9 mph 1017.6mb 66f 66f
5:50am 0.3ft  -  3s 7 7 mph 1017.6mb 66f 66f
4:50am 0.3ft  -  3s 7 9 mph 1017.8mb 66f 66f
2:50am 0.3ft  -  3s 4 4 mph 1017.6mb 66f 66f
1:50am 0.3ft  -  3s  -  2 mph 1017.5mb 66f 66f
12:50am 0.3ft  -  3s 2 2 mph 1017.5mb 66f 66f
Sat 08/12 11:50pm 0.3ft  -  2s 4 4 mph 1017.6mb 66f 67f
10:50pm 0.3ft  -  2s 7 9 mph 1017.4mb 67f 67f
9:50pm 0.3ft  -  2s 4 7 mph 1017.1mb 67f 67f
8:50pm 0.3ft  -  2s 9 9 mph 1017.1mb 67f 67f
7:50pm 0.3ft  -  3s 9 11 mph 1016.8mb 67f 67f
6:50pm 0.3ft  -  3s 9 9 mph 1016.8mb 67f 68f